This is the latest recevied weather packets stored in our database for station/object LU8FJH-13. If no packets are shown the sender has not sent any weather packets the latest 10 day(s).
| Time | Temp. | Humidity | Pressure | Rain* | Wind** | Luminosity | Snow |
|---|---|---|---|---|---|---|---|
| 1777489250 | 28.33° C | 27% | 1011.7 hPa | 0 mm | - | - | - |
| 1777488710 | 28.33° C | 28% | 1011.7 hPa | 0 mm | - | - | - |
| 1777488170 | 27.78° C | 27% | 1011.9 hPa | 0 mm | - | - | - |
| 1777487630 | 27.78° C | 29% | 1011.7 hPa | 0 mm | - | - | - |
| 1777487090 | 28.33° C | 31% | 1012 hPa | 0 mm | - | - | - |
| 1777486551 | 28.33° C | 30% | 1011.9 hPa | 0 mm | - | - | - |
| 1777486010 | 27.78° C | 30% | 1011.6 hPa | 0 mm | - | - | - |
| 1777485470 | 27.78° C | 32% | 1011.6 hPa | 0 mm | - | - | - |
| 1777484930 | 27.22° C | 31% | 1011.5 hPa | 0 mm | - | - | - |
| 1777484390 | 26.67° C | 33% | 1011.9 hPa | 0 mm | - | - | - |
| 1777483850 | 26.67° C | 34% | 1011.9 hPa | 0 mm | - | - | - |
| 1777483310 | 26.67° C | 36% | 1012 hPa | 0 mm | - | - | - |
| 1777482770 | 26.67° C | 38% | 1011.8 hPa | 0 mm | - | - | - |
| 1777482230 | 26.67° C | 39% | 1012 hPa | 0 mm | - | - | - |
| 1777481690 | 26.11° C | 40% | 1012.2 hPa | 0 mm | - | - | - |
| 1777481150 | 25.56° C | 41% | 1012.2 hPa | 0 mm | - | - | - |
| 1777480610 | 25° C | 43% | 1012.4 hPa | 0 mm | - | - | - |
| 1777480070 | 23.33° C | 47% | 1012.6 hPa | 0 mm | - | - | - |
| 1777479530 | 22.78° C | 48% | 1012.5 hPa | 0 mm | - | - | - |
| 1777478990 | 22.78° C | 48% | 1012.7 hPa | 0 mm | - | - | - |
| 1777478450 | 22.22° C | 48% | 1012.8 hPa | 0 mm | - | - | - |
| 1777477910 | 22.22° C | 48% | 1012.7 hPa | 0 mm | - | - | - |
| 1777477370 | 22.22° C | 48% | 1012.9 hPa | 0 mm | - | - | - |
| 1777476830 | 22.22° C | 49% | 1013 hPa | 0 mm | - | - | - |
| 1777464641 | 14.44° C | 67% | 1013.4 hPa | 0 mm | - | - | - |
* Rain latest hour (hover to see other rain measurements)
** Current wind speed in m/s (hover to see current wind gust speed)